Aérodrome :
LOGIN :

S'inscrire | Disclaimer

   EN    FR    IT 

 










Légende :    VFR   VFR Marginal   IFR   IFR Intensif   IFR Très Intensif
Visi : 
Plafond : 
>= 8 km
>= 3000ft
5 à 8 km
1000 à 3000 ft
1500m à 5 km
500 à 1000 ft
800 à 1500m
200 à 500 ft
< 800m
< 200 ft
Symboles :   Orages  Brouillard  Fortes neiges  Fortes précipitations  Vent > 20 kt
SIGMETs :   Divers  Orages  Givrage  Turbulence  Onde Orograph.  Cendres Volcan.







- Altitude de l'aérodrome : 160 ft
- Code IATA : FMO


EDDG - Münster Osnabrück Int.

DERNIER METAR :
  • 131250Z 19015G26KT 150V220 9000 -RASN FEW010 BKN013 03/02 Q0997 TEMPO BKN007

METARs EXPIRÉS :
  • 131220Z 19012KT 160V220 9999 -RASN FEW010 BKN013 03/02 Q0998 TEMPO BKN007
  • 131150Z 18012KT 150V220 9999 -RASN FEW011 BKN013 03/02 Q0999 TEMPO BKN007
  • 131120Z 18013G24KT 150V210 9999 -RASN FEW012 BKN016 03/02 Q1000 TEMPO BKN012
  • 131050Z 18012KT 140V210 9000 -RASN SCT012 BKN020 03/01 Q1001 TEMPO BKN012
  • 131020Z 17012KT 140V200 9999 -RA FEW010 BKN020 03/01 Q1002 TEMPO RA BKN010

TAF TAF EDDG
Valide du 13 à 12h jusqu'au 14 à 12h UTC


131100Z 1312/1412 18010KT 9999 SCT012 BKN020
BECMG 1312/1315 19015G25KT BKN012
TEMPO 1312/1315 RA
PROB40
TEMPO 1313/1401 BKN008
TEMPO 1321/1323 21020G30KT RA
BECMG 1321/1324 25015G25KT BKN015
BECMG 1400/1403 23010KT
BECMG 1403/1406 23015G25KT
Pas de NOTAMs connus pour ce terrain.



MET'MAP, la Météo Aéronautique d'un coup d'oeil ! - Copyright ORBIFLY Décembre 2007 - Disclaimer

ORBIFLY MET'MAP TEAM :

Programmation & Développement : Alexandra Zaïnal
Conception & Développement : Baudouin d'Aumeries
Co-Programmation & Développement : Marc-Olivier Méhu
Soutien technique & logistique : Manuel Goepfert

Contact : metmap@orbifly.com




SOURCES & CREDITS :

   NOAA